Time;durP1;ratioP1;P1;durP2;ratioP2;P2;SDS_P1;SDS_P2;PMS_P1;PMS_P2;Temp;Humidity;BMP_temperature;BMP_pressure;BME280_temperature;BME280_humidity;BME280_pressure;Samples;Min_cycle;Max_cycle;Signal;HPM_P1;HPM_P2
2022/08/04 00:02:12;;;;;;;6.23;3.83;;;24.50;99.90;;;;;;5019290;28;20208;-49
2022/08/04 00:04:43;;;;;;;6.63;3.90;;;24.50;99.90;;;;;;5020175;28;20719;-50
2022/08/04 00:07:21;;;;;;;6.43;4.43;;;24.50;99.90;;;;;;5020462;28;20205;-50
2022/08/04 00:10:08;;;;;;;5.93;4.13;;;24.50;99.90;;;;;;5020207;28;20296;-50
2022/08/04 00:12:41;;;;;;;8.00;3.80;;;24.50;99.90;;;;;;5019724;28;20200;-50
2022/08/04 00:15:12;;;;;;;7.63;4.23;;;24.40;99.90;;;;;;5019617;28;20247;-50
2022/08/04 00:17:53;;;;;;;7.03;4.00;;;24.40;99.90;;;;;;5017847;28;20607;-50
2022/08/04 00:20:22;;;;;;;6.60;4.15;;;24.40;99.90;;;;;;5019577;28;20215;-52
2022/08/04 00:22:51;;;;;;;7.25;3.75;;;24.40;99.90;;;;;;5019410;28;20240;-50
2022/08/04 00:25:18;;;;;;;8.40;4.53;;;24.40;99.90;;;;;;5019704;28;20220;-50
2022/08/04 00:27:46;;;;;;;7.97;4.10;;;24.10;99.90;;;;;;5019905;28;20624;-50
2022/08/04 00:30:13;;;;;;;9.17;3.80;;;24.10;99.90;;;;;;5020450;28;20207;-50
2022/08/04 00:32:41;;;;;;;5.50;3.80;;;24.00;99.90;;;;;;5018276;28;20251;-51
2022/08/04 00:35:11;;;;;;;6.78;4.18;;;24.00;99.90;;;;;;5018184;28;20215;-50
2022/08/04 00:37:39;;;;;;;9.50;4.23;;;23.90;99.90;;;;;;5022655;28;20211;-50
2022/08/04 00:40:18;;;;;;;9.80;4.80;;;23.90;99.90;;;;;;5023240;28;20235;-49
2022/08/04 00:43:01;;;;;;;8.13;5.37;;;23.90;99.90;;;;;;5023910;28;20262;-49
2022/08/04 00:45:46;;;;;;;8.70;5.07;;;23.90;99.90;;;;;;5022616;28;20258;-49
2022/08/04 00:48:45;;;;;;;10.60;4.93;;;24.00;99.90;;;;;;5022813;28;20661;-50
2022/08/04 00:51:31;;;;;;;8.32;5.15;;;23.90;99.90;;;;;;5022809;28;20236;-52
2022/08/04 00:54:10;;;;;;;9.03;6.17;;;23.90;99.90;;;;;;5024576;28;20228;-50
2022/08/04 00:57:01;;;;;;;7.00;4.75;;;23.90;99.90;;;;;;5022671;28;20633;-51
2022/08/04 00:59:41;;;;;;;11.33;5.00;;;23.90;99.90;;;;;;5023508;28;20205;-50
2022/08/04 01:02:28;;;;;;;8.60;5.27;;;23.80;99.90;;;;;;5023289;28;20613;-50
2022/08/04 01:05:13;;;;;;;8.97;5.80;;;23.80;99.90;;;;;;5021875;28;20208;-50
2022/08/04 01:08:05;;;;;;;9.30;5.57;;;23.80;99.90;;;;;;5022378;28;20664;-50
2022/08/04 01:11:14;;;;;;;10.33;5.47;;;23.90;99.90;;;;;;5023806;28;20201;-49
2022/08/04 01:14:03;;;;;;;9.60;5.13;;;23.80;99.90;;;;;;5023108;28;20197;-53
2022/08/04 01:16:38;;;;;;;11.00;4.97;;;23.80;99.90;;;;;;5016423;28;20702;-50
2022/08/04 01:19:33;;;;;;;8.67;5.07;;;23.80;99.90;;;;;;5022452;28;20668;-50
2022/08/04 01:22:06;;;;;;;10.97;5.23;;;23.70;99.90;;;;;;5022297;28;20217;-50
2022/08/04 01:24:50;;;;;;;9.23;5.50;;;23.70;99.90;;;;;;5022656;28;20244;-53
2022/08/04 01:27:46;;;;;;;9.48;4.78;;;23.50;99.90;;;;;;5022373;28;20205;-50
2022/08/04 01:30:13;;;;;;;6.63;4.33;;;23.50;99.90;;;;;;5020368;28;20202;-49
2022/08/04 01:32:52;;;;;;;7.60;4.37;;;23.40;99.90;;;;;;5016614;28;20232;-49
2022/08/04 01:35:27;;;;;;;8.10;4.23;;;23.40;99.90;;;;;;5021221;28;20209;-50
2022/08/04 01:38:22;;;;;;;7.87;4.10;;;23.40;99.90;;;;;;5022112;28;20618;-49
2022/08/04 01:40:56;;;;;;;8.40;4.70;;;23.50;99.90;;;;;;5022214;28;20223;-49
2022/08/04 01:43:26;;;;;;;10.73;5.17;;;23.40;99.90;;;;;;5020578;28;20660;-53
2022/08/04 01:45:57;;;;;;;6.93;4.43;;;23.40;99.90;;;;;;5021801;28;20217;-48
2022/08/04 01:48:26;;;;;;;6.17;4.10;;;23.30;99.90;;;;;;5021871;28;20252;-52
2022/08/04 01:50:56;;;;;;;6.93;4.53;;;23.40;99.90;;;;;;5028645;28;20228;-50
2022/08/04 01:53:30;;;;;;;10.20;5.07;;;23.40;99.90;;;;;;5021869;28;20664;-50
2022/08/04 01:55:57;;;;;;;8.03;4.77;;;23.40;99.90;;;;;;5017643;28;20236;-50
2022/08/04 01:58:29;;;;;;;7.73;4.10;;;23.40;99.90;;;;;;5021296;28;20221;-50
2022/08/04 02:01:09;;;;;;;6.80;4.77;;;23.30;99.90;;;;;;5020708;28;20554;-49
2022/08/04 02:03:42;;;;;;;8.03;4.60;;;23.40;99.90;;;;;;5021611;28;20219;-51
2022/08/04 02:06:58;;;;;;;7.80;5.07;;;23.20;99.90;;;;;;5021933;28;20233;-50
2022/08/04 02:09:44;;;;;;;7.30;4.07;;;23.20;99.90;;;;;;5021521;28;20365;-49
2022/08/04 02:12:25;;;;;;;6.43;4.20;;;23.20;99.90;;;;;;5022105;28;20271;-49
2022/08/04 02:15:01;;;;;;;10.17;5.10;;;23.20;99.90;;;;;;5028643;28;20227;-50
2022/08/04 02:17:44;;;;;;;9.93;4.70;;;23.10;99.90;;;;;;5036389;28;20458;-50
2022/08/04 02:20:38;;;;;;;7.50;3.90;;;23.10;99.90;;;;;;5022560;28;20224;-49
2022/08/04 02:23:08;;;;;;;6.50;4.07;;;23.10;99.90;;;;;;5051371;28;20217;-50
2022/08/04 02:25:59;;;;;;;5.77;4.07;;;23.10;99.90;;;;;;5020595;28;20248;-50
2022/08/04 02:28:33;;;;;;;5.37;4.10;;;23.00;99.90;;;;;;5020923;28;20233;-50
2022/08/04 02:31:06;;;;;;;5.63;4.37;;;22.90;99.90;;;;;;5003817;28;20210;-50
2022/08/04 02:33:37;;;;;;;8.00;4.20;;;22.90;99.90;;;;;;5020936;28;20264;-49
2022/08/04 02:36:08;;;;;;;5.07;3.90;;;22.80;99.90;;;;;;5021489;28;20209;-50
2022/08/04 02:38:57;;;;;;;6.63;4.20;;;22.90;99.90;;;;;;5020966;28;20576;-50
2022/08/04 02:41:26;;;;;;;7.57;3.80;;;22.50;99.90;;;;;;5021980;28;20219;-49
2022/08/04 02:44:01;;;;;;;5.00;4.00;;;22.70;99.90;;;;;;5021685;28;20296;-52
2022/08/04 02:46:30;;;;;;;6.47;4.00;;;22.70;99.90;;;;;;5019540;28;20287;-48
2022/08/04 02:49:00;;;;;;;7.10;4.50;;;22.70;99.90;;;;;;5021098;28;20213;-48
2022/08/04 02:51:34;;;;;;;9.73;4.30;;;22.70;99.90;;;;;;5017758;28;20244;-49
2022/08/04 02:54:03;;;;;;;8.20;3.87;;;22.60;99.90;;;;;;5021196;28;20318;-49
2022/08/04 02:56:33;;;;;;;6.37;4.07;;;22.60;99.90;;;;;;5019031;28;20271;-50
2022/08/04 02:59:13;;;;;;;8.27;4.50;;;22.30;99.90;;;;;;5019674;28;20208;-48
2022/08/04 03:01:43;;;;;;;7.57;5.27;;;21.80;99.90;;;;;;5019417;28;20209;-49
2022/08/04 03:04:58;;;;;;;7.97;5.00;;;22.00;99.90;;;;;;5020608;28;20197;-47
2022/08/04 03:07:40;;;;;;;10.33;5.20;;;22.30;99.90;;;;;;5019008;28;20296;-49
2022/08/04 03:10:20;;;;;;;8.43;5.27;;;22.50;99.90;;;;;;5020740;28;20220;-48
2022/08/04 03:13:10;;;;;;;9.50;5.60;;;22.50;99.90;;;;;;5021437;28;20208;-49
2022/08/04 03:15:59;;;;;;;8.80;5.43;;;22.70;99.90;;;;;;5022102;28;20210;-48
2022/08/04 03:19:32;;;;;;;8.93;5.00;;;22.80;99.90;;;;;;5020942;28;20253;-48
2022/08/04 03:22:27;;;;;;;8.33;5.23;;;22.70;99.90;;;;;;5019068;28;20723;-49
2022/08/04 03:25:09;;;;;;;6.73;5.20;;;22.60;99.90;;;;;;5021169;28;20208;-48
2022/08/04 03:28:02;;;;;;;9.83;5.33;;;22.30;99.90;;;;;;5019712;28;20259;-50
2022/08/04 03:30:47;;;;;;;7.27;4.97;;;22.30;99.90;;;;;;5018538;28;20237;-51
2022/08/04 03:33:39;;;;;;;7.70;5.20;;;21.70;99.90;;;;;;5021059;28;20208;-49
2022/08/04 03:36:33;;;;;;;8.20;5.07;;;21.80;99.90;;;;;;5019215;28;20247;-50
2022/08/04 03:39:27;;;;;;;;;;;;;;;;;;;;;
2022/08/04 03:42:33;;;;;;;12.57;5.43;;;22.20;99.90;;;;;;5020748;28;20211;-48
2022/08/04 03:45:24;;;;;;;9.53;6.17;;;22.30;99.90;;;;;;5028023;28;20220;-49
2022/08/04 03:48:12;;;;;;;8.70;4.90;;;22.30;99.90;;;;;;5019609;28;20679;-48
2022/08/04 03:53:07;;;;;;;8.87;5.17;;;22.40;99.90;;;;;;5020875;28;21053;-47
2022/08/04 03:54:27;;;;;;;8.87;5.00;;;22.30;99.90;;;;;;5020466;28;20272;-49
2022/08/04 03:57:24;;;;;;;12.67;6.07;;;22.20;99.90;;;;;;5021443;28;20248;-51
2022/08/04 04:00:01;;;;;;;7.27;5.40;;;22.20;99.90;;;;;;5022667;28;20219;-48
2022/08/04 04:02:42;;;;;;;8.33;5.43;;;22.00;99.90;;;;;;5019578;28;20216;-51
2022/08/04 04:05:28;;;;;;;6.83;5.87;;;22.10;99.90;;;;;;5013479;28;20226;-49
2022/08/04 04:08:26;;;;;;;8.87;5.93;;;22.00;99.90;;;;;;5019683;28;20205;-49
2022/08/04 04:11:15;;;;;;;7.33;5.40;;;21.90;99.90;;;;;;5019877;28;20702;-47
2022/08/04 04:13:44;;;;;;;13.77;6.30;;;21.90;99.90;;;;;;5019938;28;20562;-51
2022/08/04 04:16:21;;;;;;;7.27;5.77;;;21.80;99.90;;;;;;5017768;28;20235;-50
2022/08/04 04:18:55;;;;;;;7.77;5.53;;;21.80;99.90;;;;;;5016370;28;20287;-49
2022/08/04 04:22:00;;;;;;;7.83;5.43;;;21.90;99.90;;;;;;5026459;28;20270;-51
2022/08/04 04:25:05;;;;;;;8.17;5.10;;;21.80;99.90;;;;;;5018897;28;20258;-51
2022/08/04 04:27:44;;;;;;;10.10;5.53;;;22.00;99.90;;;;;;5018560;28;20217;-52
2022/08/04 04:30:38;;;;;;;8.07;5.33;;;21.90;99.90;;;;;;5018994;28;20232;-50
2022/08/04 04:33:47;;;;;;;8.70;5.90;;;21.90;99.90;;;;;;5014576;28;20338;-51
2022/08/04 04:36:26;;;;;;;6.97;5.60;;;21.90;99.90;;;;;;5019935;28;20638;-52
2022/08/04 04:39:19;;;;;;;8.17;5.27;;;21.90;99.90;;;;;;5018214;28;20663;-50
2022/08/04 04:42:05;;;;;;;9.40;5.37;;;22.00;99.90;;;;;;5019063;28;20219;-51
2022/08/04 04:44:52;;;;;;;9.97;5.90;;;22.10;99.90;;;;;;5019379;28;20208;-49
2022/08/04 04:47:46;;;;;;;8.70;5.00;;;22.20;99.90;;;;;;5018559;28;20729;-50
2022/08/04 04:50:45;;;;;;;8.63;5.37;;;22.20;99.90;;;;;;5018475;28;20208;-48
2022/08/04 04:53:32;;;;;;;6.97;5.30;;;22.30;99.90;;;;;;5020160;28;20205;-47
2022/08/04 04:56:18;;;;;;;7.63;5.20;;;22.30;99.90;;;;;;5019583;28;20281;-48
2022/08/04 04:58:47;;;;;;;11.20;5.57;;;22.30;99.90;;;;;;5019944;28;20213;-48
2022/08/04 05:01:28;;;;;;;10.50;5.60;;;22.30;99.90;;;;;;5015365;28;20562;-48
2022/08/04 05:04:24;;;;;;;7.90;5.77;;;22.30;99.90;;;;;;5017761;28;20197;-49
2022/08/04 05:07:09;;;;;;;8.87;5.43;;;22.40;99.90;;;;;;5019391;28;20229;-50
2022/08/04 05:09:37;;;;;;;9.07;6.43;;;22.40;99.90;;;;;;5020032;28;20200;-50
2022/08/04 05:12:24;;;;;;;8.60;4.87;;;22.40;99.90;;;;;;5034411;28;20625;-49
2022/08/04 05:15:15;;;;;;;8.17;5.43;;;22.50;99.90;;;;;;5019722;28;20295;-49
2022/08/04 05:17:50;;;;;;;12.23;6.40;;;22.50;99.90;;;;;;5018155;28;20232;-49
2022/08/04 05:20:27;;;;;;;9.27;5.87;;;22.40;99.90;;;;;;5019071;28;20220;-51
2022/08/04 05:23:08;;;;;;;8.77;5.43;;;22.60;99.90;;;;;;5016879;28;20216;-49
2022/08/04 05:25:44;;;;;;;6.53;5.07;;;22.70;99.90;;;;;;5022349;28;20599;-50
2022/08/04 05:28:40;;;;;;;9.10;5.20;;;22.80;99.90;;;;;;5021251;28;20204;-48
2022/08/04 05:31:19;;;;;;;9.67;4.77;;;22.80;99.90;;;;;;5022316;28;20213;-48
2022/08/04 05:34:02;;;;;;;9.60;4.80;;;22.90;99.90;;;;;;5021131;28;20215;-49
2022/08/04 05:36:51;;;;;;;8.57;5.93;;;23.00;99.90;;;;;;5021881;28;20299;-48
2022/08/04 05:39:42;;;;;;;9.17;6.27;;;22.70;99.90;;;;;;5022672;28;20683;-48
2022/08/04 05:42:13;;;;;;;10.17;6.33;;;22.20;99.90;;;;;;5022872;28;20227;-48
2022/08/04 05:44:41;;;;;;;6.97;5.60;;;22.10;99.90;;;;;;5018910;28;20207;-49
2022/08/04 05:47:15;;;;;;;13.80;5.87;;;21.90;99.90;;;;;;5022920;28;20212;-52
2022/08/04 05:49:46;;;;;;;9.80;6.00;;;22.20;99.90;;;;;;5023441;28;20212;-49
2022/08/04 05:52:32;;;;;;;10.33;6.67;;;22.20;99.90;;;;;;5022569;28;20268;-50
2022/08/04 05:55:03;;;;;;;9.23;6.53;;;22.10;99.90;;;;;;5021191;28;20745;-49
2022/08/04 05:57:31;;;;;;;10.93;6.20;;;22.20;99.90;;;;;;5022271;28;20299;-48
2022/08/04 06:00:01;;;;;;;9.83;6.27;;;22.30;99.90;;;;;;5020973;28;20219;-48
2022/08/04 06:02:53;;;;;;;10.70;7.13;;;22.40;99.90;;;;;;5020414;28;20224;-49
2022/08/04 06:05:22;;;;;;;10.87;7.30;;;22.60;99.90;;;;;;5021710;28;20213;-50
2022/08/04 06:07:49;;;;;;;10.30;6.63;;;22.70;99.90;;;;;;5020871;28;20220;-50
2022/08/04 06:10:41;;;;;;;12.13;7.20;;;22.90;99.90;;;;;;5020947;28;20209;-49
2022/08/04 06:13:17;;;;;;;11.53;6.60;;;23.10;99.90;;;;;;5020225;28;20239;-51
2022/08/04 06:16:07;;;;;;;10.23;7.20;;;23.20;99.90;;;;;;5020572;28;20694;-48
2022/08/04 06:18:46;;;;;;;10.83;6.90;;;23.10;99.90;;;;;;5021158;28;20215;-50
2022/08/04 06:21:36;;;;;;;7.70;6.40;;;23.20;99.90;;;;;;5021324;28;20222;-50
2022/08/04 06:24:25;;;;;;;10.43;6.63;;;23.20;99.90;;;;;;5018620;28;20231;-50
2022/08/04 06:26:53;;;;;;;11.70;6.60;;;23.20;99.90;;;;;;5022496;28;20220;-49
2022/08/04 06:29:40;;;;;;;8.60;6.53;;;23.10;99.90;;;;;;5020788;28;20207;-50
2022/08/04 06:32:26;;;;;;;14.03;6.37;;;23.20;99.90;;;;;;5020105;28;20209;-49
2022/08/04 06:35:06;;;;;;;8.90;6.23;;;23.30;99.90;;;;;;5021182;28;20679;-48
2022/08/04 06:37:36;;;;;;;11.63;6.60;;;23.30;99.90;;;;;;5022038;28;20224;-49
2022/08/04 06:40:12;;;;;;;13.93;6.87;;;23.30;99.90;;;;;;5020108;28;20208;-48
2022/08/04 06:43:13;;;;;;;9.27;6.40;;;23.40;99.90;;;;;;5021903;28;20211;-48
2022/08/04 06:45:42;;;;;;;15.40;6.67;;;23.50;99.90;;;;;;5018749;28;20239;-48
2022/08/04 06:48:14;;;;;;;10.67;6.40;;;23.60;99.90;;;;;;5020792;28;20217;-48
2022/08/04 06:50:48;;;;;;;10.20;6.43;;;23.80;99.90;;;;;;5020974;28;20241;-49
2022/08/04 06:53:35;;;;;;;11.57;5.97;;;23.90;99.90;;;;;;5021633;28;20576;-49
2022/08/04 06:56:03;;;;;;;9.67;5.83;;;24.00;99.90;;;;;;5020674;28;20337;-49
2022/08/04 06:58:32;;;;;;;11.07;5.03;;;24.10;99.90;;;;;;5021399;28;20211;-49
2022/08/04 07:01:03;;;;;;;9.97;5.10;;;24.20;99.90;;;;;;5020328;28;20201;-50
2022/08/04 07:03:32;;;;;;;10.97;5.27;;;24.10;99.90;;;;;;5018747;28;20206;-48
2022/08/04 07:06:01;;;;;;;9.00;5.30;;;24.10;99.90;;;;;;5020843;28;20222;-49
2022/08/04 07:08:40;;;;;;;7.87;5.47;;;24.20;99.90;;;;;;5021264;28;20208;-50
2022/08/04 07:11:07;;;;;;;7.93;4.70;;;24.10;99.90;;;;;;5021221;28;20261;-50
2022/08/04 07:13:35;;;;;;;10.63;5.33;;;24.10;99.90;;;;;;5003038;28;20229;-50
2022/08/04 07:16:14;;;;;;;6.90;4.60;;;24.10;99.90;;;;;;5020545;28;20335;-50
2022/08/04 07:18:44;;;;;;;7.07;4.07;;;24.30;99.90;;;;;;5020230;28;20221;-50
2022/08/04 07:21:22;;;;;;;7.83;4.10;;;24.20;99.90;;;;;;5035097;28;20219;-49
2022/08/04 07:23:50;;;;;;;7.87;3.80;;;24.30;99.90;;;;;;5020937;28;20205;-52
2022/08/04 07:26:25;;;;;;;6.83;4.00;;;24.50;99.90;;;;;;5021098;28;20647;-49
2022/08/04 07:28:52;;;;;;;8.63;3.77;;;24.60;99.90;;;;;;5021198;28;20728;-50
2022/08/04 07:31:22;;;;;;;7.90;4.40;;;24.70;99.90;;;;;;5020264;28;20594;-51
2022/08/04 07:34:01;;;;;;;6.60;4.20;;;24.80;99.90;;;;;;5020915;28;20642;-51
2022/08/04 07:36:49;;;;;;;6.90;4.03;;;25.00;99.90;;;;;;5019201;28;20208;-51
2022/08/04 07:39:20;;;;;;;7.70;3.90;;;25.00;99.90;;;;;;5020966;28;20307;-52
2022/08/04 07:41:59;;;;;;;7.83;4.30;;;25.10;99.90;;;;;;5019160;28;20212;-51
2022/08/04 07:44:30;;;;;;;6.43;2.70;;;25.30;99.90;;;;;;5018930;28;20206;-51
2022/08/04 07:46:57;;;;;;;6.77;3.00;;;25.70;99.90;;;;;;5018272;28;20582;-50
2022/08/04 07:49:27;;;;;;;4.83;3.03;;;25.70;99.90;;;;;;5021066;28;20211;-50
2022/08/04 07:52:15;;;;;;;7.20;3.30;;;25.90;99.90;;;;;;5019309;28;20240;-52
2022/08/04 07:54:43;;;;;;;6.47;3.37;;;25.50;99.90;;;;;;5019323;28;20235;-52
2022/08/04 07:57:10;;;;;;;6.03;3.33;;;25.60;99.90;;;;;;5019642;28;20207;-51
2022/08/04 07:59:47;;;;;;;7.47;2.83;;;25.50;99.90;;;;;;5020204;28;20711;-51
2022/08/04 08:02:19;;;;;;;8.67;3.37;;;25.40;99.90;;;;;;5017044;28;20263;-50
2022/08/04 08:04:47;;;;;;;5.30;2.93;;;25.60;99.90;;;;;;5019019;28;20212;-51
2022/08/04 08:07:14;;;;;;;3.97;2.60;;;25.50;99.90;;;;;;5015645;28;20630;-51
2022/08/04 08:09:41;;;;;;;7.97;3.20;;;25.60;99.90;;;;;;5018953;28;20227;-50
2022/08/04 08:12:08;;;;;;;11.23;2.90;;;25.90;99.90;;;;;;5016256;28;20262;-50
2022/08/04 08:14:55;;;;;;;6.78;3.10;;;26.20;99.90;;;;;;5018167;28;20220;-50
2022/08/04 08:17:22;;;;;;;6.05;2.95;;;26.40;99.90;;;;;;5018346;28;20548;-51
2022/08/04 08:19:50;;;;;;;7.90;2.90;;;26.70;99.90;;;;;;5018506;28;20432;-50
2022/08/04 08:22:17;;;;;;;4.60;2.60;;;26.60;99.90;;;;;;5019139;28;20208;-50
2022/08/04 08:24:43;;;;;;;6.30;2.70;;;26.40;99.90;;;;;;5020490;28;20219;-50
2022/08/04 08:27:10;;;;;;;6.38;2.58;;;26.70;99.90;;;;;;5018515;28;20218;-50
2022/08/04 08:29:39;;;;;;;6.30;2.88;;;26.60;99.90;;;;;;5019749;28;20582;-50
2022/08/04 08:32:08;;;;;;;6.90;2.78;;;26.70;99.90;;;;;;5019308;28;20624;-51
2022/08/04 08:34:37;;;;;;;8.00;2.70;;;26.70;99.90;;;;;;5019294;28;20263;-51
2022/08/04 08:37:51;;;;;;;5.78;2.60;;;27.10;99.90;;;;;;5002746;28;20682;-50
2022/08/04 08:40:37;;;;;;;7.97;2.20;;;27.00;99.90;;;;;;5026169;28;20803;-51
2022/08/04 08:43:23;;;;;;;6.28;2.13;;;27.00;99.90;;;;;;5026240;28;20262;-50
2022/08/04 08:46:30;;;;;;;2.65;1.77;;;26.90;99.90;;;;;;5025929;28;20307;-50
2022/08/04 08:49:38;;;;;;;4.57;1.85;;;27.00;99.90;;;;;;5026226;28;20572;-50
2022/08/04 08:52:31;;;;;;;10.73;2.97;;;27.20;99.90;;;;;;5026257;28;20232;-50
2022/08/04 08:55:55;;;;;;;5.72;2.55;;;27.30;99.90;;;;;;5027266;28;20279;-50
2022/08/04 08:58:34;;;;;;;8.00;2.00;;;27.40;99.90;;;;;;5030344;28;20254;-50
2022/08/04 09:01:25;;;;;;;8.02;2.25;;;28.00;99.90;;;;;;5029755;28;20205;-51
2022/08/04 09:04:34;;;;;;;3.53;1.70;;;27.90;99.90;;;;;;5030381;28;20300;-51
2022/08/04 09:07:38;;;;;;;5.80;2.15;;;27.70;99.90;;;;;;5003530;28;20624;-51
2022/08/04 09:10:17;;;;;;;5.35;1.75;;;27.30;99.90;;;;;;5028460;28;20255;-51
2022/08/04 09:12:51;;;;;;;5.10;1.90;;;27.30;99.90;;;;;;5003509;28;20674;-52
2022/08/04 09:15:27;;;;;;;6.03;2.08;;;27.20;99.90;;;;;;5003152;28;20617;-51
2022/08/04 09:18:22;;;;;;;5.95;1.80;;;27.30;99.90;;;;;;5001917;28;20252;-51
2022/08/04 09:21:03;;;;;;;3.65;1.90;;;27.30;99.90;;;;;;5003149;28;20237;-51
2022/08/04 09:23:53;;;;;;;5.75;1.75;;;27.20;99.90;;;;;;5003211;28;20666;-51
2022/08/04 09:26:30;;;;;;;5.40;1.90;;;27.10;99.90;;;;;;5002934;28;20625;-52
2022/08/04 09:29:07;;;;;;;6.22;1.95;;;26.90;99.90;;;;;;5003038;28;20228;-52
2022/08/04 09:31:48;;;;;;;3.88;1.85;;;27.00;99.90;;;;;;5001899;28;20252;-51
2022/08/04 09:35:11;;;;;;;8.73;2.58;;;26.90;99.90;;;;;;5002263;28;20217;-52
2022/08/04 09:37:44;;;;;;;7.75;1.77;;;26.80;99.90;;;;;;5003426;28;20205;-52
2022/08/04 09:40:53;;;;;;;6.10;1.90;;;26.60;99.90;;;;;;5002604;28;20641;-51
2022/08/04 09:43:42;;;;;;;5.43;2.35;;;26.70;99.90;;;;;;4991515;28;20235;-51
2022/08/04 09:46:46;;;;;;;5.60;2.30;;;26.50;99.90;;;;;;5002690;28;20434;-52
2022/08/04 09:49:18;;;;;;;5.93;1.98;;;26.10;99.90;;;;;;5002727;28;20256;-51
2022/08/04 09:51:52;;;;;;;6.95;1.92;;;26.20;99.90;;;;;;5013531;28;20237;-52
2022/08/04 09:54:36;;;;;;;6.90;1.88;;;26.30;99.90;;;;;;5021679;28;20232;-52
2022/08/04 09:57:13;;;;;;;5.85;2.58;;;26.40;99.90;;;;;;5021051;28;20429;-51
2022/08/04 10:00:04;;;;;;;7.40;2.15;;;26.40;99.90;;;;;;5021902;28;20255;-53
2022/08/04 10:02:39;;;;;;;3.28;1.90;;;25.90;99.90;;;;;;5017202;28;20209;-50
2022/08/04 10:05:13;;;;;;;3.67;2.20;;;25.90;99.90;;;;;;5022611;28;20635;-50
2022/08/04 10:08:03;;;;;;;5.63;2.33;;;25.80;99.90;;;;;;5020108;28;20213;-51
2022/08/04 10:11:26;;;;;;;7.25;2.45;;;25.80;99.90;;;;;;5022022;28;20209;-50
2022/08/04 10:14:04;;;;;;;6.85;2.13;;;25.50;99.90;;;;;;5020875;28;20286;-50
2022/08/04 10:16:57;;;;;;;4.70;2.20;;;25.30;99.90;;;;;;5021351;28;20208;-50
2022/08/04 10:19:31;;;;;;;7.70;1.90;;;25.10;99.90;;;;;;5018949;28;20217;-50
2022/08/04 10:22:20;;;;;;;3.80;1.90;;;25.10;99.90;;;;;;5020690;28;20259;-50
2022/08/04 10:25:03;;;;;;;4.53;1.70;;;25.00;99.90;;;;;;5021144;28;20252;-51
2022/08/04 10:27:56;;;;;;;6.00;1.87;;;25.00;99.90;;;;;;5022150;28;20309;-50
2022/08/04 10:30:24;;;;;;;7.15;2.40;;;24.80;99.90;;;;;;5018996;28;20205;-51
2022/08/04 10:33:18;;;;;;;5.83;2.23;;;24.50;99.90;;;;;;5021840;28;20291;-51
2022/08/04 10:35:52;;;;;;;5.90;2.70;;;24.50;99.90;;;;;;5022072;28;20218;-50
2022/08/04 10:38:41;;;;;;;4.43;2.63;;;24.50;99.90;;;;;;5021703;28;20726;-49
2022/08/04 10:41:38;;;;;;;3.50;2.33;;;24.50;99.90;;;;;;5022095;28;20208;-51
2022/08/04 10:44:42;;;;;;;5.90;2.07;;;24.50;99.90;;;;;;5017017;28;20856;-50
2022/08/04 10:47:20;;;;;;;4.20;1.97;;;24.20;99.90;;;;;;5019880;28;20209;-51
2022/08/04 10:49:54;;;;;;;4.30;2.37;;;24.40;99.90;;;;;;5020581;28;20249;-50
2022/08/04 10:52:37;;;;;;;7.60;2.50;;;24.60;99.90;;;;;;5015112;28;20232;-50
2022/08/04 10:55:20;;;;;;;5.10;2.23;;;24.70;99.90;;;;;;5020290;28;20732;-50
2022/08/04 10:57:54;;;;;;;3.40;1.93;;;24.50;99.90;;;;;;5021377;28;20211;-49
2022/08/04 11:00:24;;;;;;;5.60;2.27;;;24.50;99.90;;;;;;5015421;28;20338;-50
2022/08/04 11:03:22;;;;;;;6.53;2.53;;;24.50;99.90;;;;;;5017014;28;20208;-51
2022/08/04 11:06:03;;;;;;;5.97;2.43;;;24.60;99.90;;;;;;5019197;28;20212;-52
2022/08/04 11:08:33;;;;;;;4.70;2.40;;;24.70;99.90;;;;;;5020770;28;20564;-51
2022/08/04 11:11:11;;;;;;;4.57;2.47;;;24.60;99.90;;;;;;5020837;28;20255;-51
2022/08/04 11:14:09;;;;;;;4.60;2.00;;;24.70;99.90;;;;;;5020526;28;20777;-51
2022/08/04 11:17:06;;;;;;;3.17;2.00;;;24.80;99.90;;;;;;5017980;28;20222;-50
2022/08/04 11:19:38;;;;;;;2.23;1.80;;;24.70;99.90;;;;;;5020359;28;20209;-50
2022/08/04 11:22:25;;;;;;;3.87;1.60;;;24.90;99.90;;;;;;5020708;28;20212;-50
2022/08/04 11:24:55;;;;;;;3.47;2.13;;;24.70;99.90;;;;;;5021045;28;20660;-52
2022/08/04 11:27:34;;;;;;;5.43;1.90;;;24.60;99.90;;;;;;5021128;28;20258;-51
2022/08/04 11:30:07;;;;;;;4.87;1.80;;;24.50;99.90;;;;;;5027197;28;20205;-51
2022/08/04 11:33:05;;;;;;;2.73;1.90;;;24.50;99.90;;;;;;5019226;28;20208;-51
2022/08/04 11:35:57;;;;;;;3.63;2.13;;;24.60;99.90;;;;;;5019254;28;20231;-50
2022/08/04 11:38:49;;;;;;;2.80;1.97;;;24.50;99.90;;;;;;5019873;28;20366;-51
2022/08/04 11:41:23;;;;;;;3.50;2.00;;;24.40;99.90;;;;;;5020769;28;20216;-56
2022/08/04 11:43:57;;;;;;;3.70;1.77;;;24.50;99.90;;;;;;5018586;28;20258;-50
2022/08/04 11:46:39;;;;;;;4.50;1.63;;;25.20;99.90;;;;;;5019192;28;20261;-53
2022/08/04 11:49:23;;;;;;;3.93;2.00;;;25.30;99.90;;;;;;5020362;28;20275;-51
2022/08/04 11:51:51;;;;;;;5.43;1.90;;;25.80;99.90;;;;;;5018302;28;20233;-50
2022/08/04 11:54:19;;;;;;;2.57;1.87;;;25.50;99.90;;;;;;5015872;28;20294;-49
2022/08/04 11:56:46;;;;;;;3.13;1.63;;;25.30;99.90;;;;;;5020699;28;20562;-49
2022/08/04 11:59:13;;;;;;;5.35;2.65;;;25.00;99.90;;;;;;5019705;28;20489;-54
2022/08/04 12:01:45;;;;;;;4.10;2.20;;;25.10;99.90;;;;;;5018233;28;20244;-52
2022/08/04 12:04:25;;;;;;;3.90;1.98;;;25.50;99.90;;;;;;5016151;28;20798;-52
2022/08/04 12:06:55;;;;;;;3.93;1.60;;;25.50;99.90;;;;;;5020659;28;20297;-52
2022/08/04 12:09:55;;;;;;;5.82;1.95;;;25.70;99.90;;;;;;5019700;28;20232;-51
2022/08/04 12:12:37;;;;;;;4.37;1.80;;;25.40;99.90;;;;;;5018461;28;20204;-54
2022/08/04 12:15:26;;;;;;;4.03;2.00;;;25.50;99.90;;;;;;5019759;28;20745;-53
2022/08/04 12:18:08;;;;;;;4.50;2.42;;;25.50;99.90;;;;;;5019176;28;20665;-52
2022/08/04 12:20:42;;;;;;;3.77;2.27;;;25.40;99.90;;;;;;5015548;28;20728;-52
2022/08/04 12:23:25;;;;;;;4.25;2.00;;;26.20;99.90;;;;;;5018945;28;20222;-52
2022/08/04 12:25:59;;;;;;;4.67;2.03;;;27.60;99.90;;;;;;5017363;28;20642;-51
2022/08/04 12:28:31;;;;;;;2.85;2.03;;;27.40;99.90;;;;;;5016012;28;20306;-53
2022/08/04 12:31:56;;;;;;;4.77;2.20;;;27.30;99.90;;;;;;5017710;28;20212;-51
2022/08/04 12:34:32;;;;;;;7.30;2.23;;;27.80;99.90;;;;;;5019530;28;20212;-51
2022/08/04 12:37:06;;;;;;;4.30;2.50;;;28.00;99.90;;;;;;5019257;28;20212;-51
2022/08/04 12:39:37;;;;;;;2.63;2.00;;;28.20;99.90;;;;;;5019598;28;20216;-52
2022/08/04 12:42:34;;;;;;;6.70;2.70;;;28.00;99.90;;;;;;5017880;28;20240;-52
2022/08/04 12:45:09;;;;;;;3.90;2.40;;;28.30;99.90;;;;;;5020128;28;20255;-53
2022/08/04 12:47:37;;;;;;;3.73;2.17;;;28.30;99.90;;;;;;5018751;28;20215;-52
2022/08/04 12:50:06;;;;;;;6.03;1.93;;;28.40;99.90;;;;;;5050163;28;20205;-52
2022/08/04 12:52:43;;;;;;;3.70;2.27;;;28.70;99.90;;;;;;5018257;28;20240;-52
2022/08/04 12:55:29;;;;;;;5.13;2.30;;;29.20;99.90;;;;;;5019492;28;20612;-52
2022/08/04 12:57:57;;;;;;;2.93;1.60;;;28.80;99.90;;;;;;5019138;28;20680;-51
2022/08/04 13:00:46;;;;;;;2.90;2.00;;;29.90;99.90;;;;;;5018070;28;20201;-52
2022/08/04 13:03:15;;;;;;;2.63;2.07;;;29.50;99.90;;;;;;5018602;28;20202;-54
2022/08/04 13:05:43;;;;;;;3.10;1.73;;;29.90;99.90;;;;;;5019531;28;20213;-54
2022/08/04 13:08:12;;;;;;;5.30;1.90;;;29.50;99.90;;;;;;5018821;28;20579;-54
2022/08/04 13:10:41;;;;;;;2.73;2.20;;;29.50;99.90;;;;;;5019127;28;20208;-51
2022/08/04 13:13:24;;;;;;;2.23;1.80;;;29.30;99.90;;;;;;5018459;28;20195;-53
2022/08/04 13:15:55;;;;;;;3.80;2.17;;;29.40;99.90;;;;;;5019716;28;20657;-52
2022/08/04 13:18:25;;;;;;;3.35;1.90;;;30.30;99.90;;;;;;5019426;28;20263;-51
2022/08/04 13:21:21;;;;;;;6.25;1.98;;;31.00;99.90;;;;;;5017159;28;20581;-53
2022/08/04 13:24:13;;;;;;;4.20;1.67;;;32.00;99.90;;;;;;5030705;28;20576;-54
2022/08/04 13:27:09;;;;;;;1.88;1.23;;;31.10;99.90;;;;;;5018297;28;20304;-54
2022/08/04 13:29:47;;;;;;;2.97;2.30;;;31.60;99.90;;;;;;5018868;28;20680;-53
2022/08/04 13:32:28;;;;;;;3.65;1.48;;;30.60;99.90;;;;;;5017349;28;20311;-53
2022/08/04 13:34:58;;;;;;;4.75;1.90;;;31.70;99.90;;;;;;5017543;28;20636;-54
2022/08/04 13:37:33;;;;;;;3.35;2.10;;;31.20;99.90;;;;;;5017145;28;20205;-53
2022/08/04 13:40:04;;;;;;;2.30;1.60;;;31.00;99.90;;;;;;5019150;28;20208;-52
2022/08/04 13:42:34;;;;;;;3.83;1.52;;;32.00;99.90;;;;;;5021677;28;20255;-52
2022/08/04 13:45:05;;;;;;;5.30;1.98;;;32.20;99.90;;;;;;5020869;28;20681;-53
2022/08/04 13:47:36;;;;;;;6.53;1.90;;;31.50;99.90;;;;;;5016375;28;20208;-53
2022/08/04 13:50:22;;;;;;;4.15;1.75;;;31.80;99.90;;;;;;5020874;28;20225;-53
2022/08/04 13:52:55;;;;;;;2.30;1.60;;;31.30;99.90;;;;;;5022878;28;20296;-55
2022/08/04 13:55:27;;;;;;;3.42;1.55;;;30.50;99.90;;;;;;5022219;28;20224;-54
2022/08/04 13:58:01;;;;;;;3.28;1.85;;;30.60;99.90;;;;;;5021277;28;20676;-52